Time;durP1;ratioP1;P1;durP2;ratioP2;P2;SDS_P1;SDS_P2;PMS_P1;PMS_P2;Temp;Humidity;BMP_temperature;BMP_pressure;BME280_temperature;BME280_humidity;BME280_pressure;Samples;Min_cycle;Max_cycle;Signal;HPM_P1;HPM_P2
2022/03/11 00:01:52;;;;;;;10.48;6.68;;;6.40;99.90;;;;;;5000549;28;20740;-80
2022/03/11 00:04:18;;;;;;;11.15;7.15;;;6.40;99.90;;;;;;5015208;28;20051;-80
2022/03/11 00:07:02;;;;;;;11.70;6.90;;;6.50;99.90;;;;;;5038743;28;20044;-80
2022/03/11 00:09:28;;;;;;;11.15;7.32;;;6.40;99.90;;;;;;4992832;28;20467;-80
2022/03/11 00:11:53;;;;;;;11.63;6.73;;;6.40;99.90;;;;;;4972948;28;20041;-80
2022/03/11 00:14:19;;;;;;;11.50;6.20;;;6.30;99.90;;;;;;5006936;28;20307;-79
2022/03/11 00:16:45;;;;;;;12.30;6.57;;;6.30;99.90;;;;;;4998773;28;20500;-80
2022/03/11 00:19:11;;;;;;;13.67;6.93;;;6.30;99.90;;;;;;5004655;28;20056;-80
2022/03/11 00:21:37;;;;;;;10.85;6.82;;;6.20;99.90;;;;;;4997177;28;20233;-80
2022/03/11 00:24:03;;;;;;;12.25;6.00;;;6.20;99.90;;;;;;5026612;28;20126;-80
2022/03/11 00:26:28;;;;;;;11.77;6.85;;;6.20;99.90;;;;;;5005667;28;20029;-80
2022/03/11 00:28:54;;;;;;;13.75;6.75;;;6.10;99.90;;;;;;5006457;28;20036;-79
2022/03/11 00:31:20;;;;;;;10.00;6.00;;;6.10;99.90;;;;;;4997300;28;20561;-80
2022/03/11 00:33:45;;;;;;;11.73;6.30;;;6.10;99.90;;;;;;5006601;28;20367;-80
2022/03/11 00:36:11;;;;;;;10.43;6.17;;;6.20;99.90;;;;;;5013805;28;20076;-80
2022/03/11 00:38:37;;;;;;;9.40;6.10;;;6.10;99.90;;;;;;5005591;28;20459;-80
2022/03/11 00:41:02;;;;;;;14.20;6.87;;;6.10;99.90;;;;;;5014524;28;20287;-81
2022/03/11 00:43:28;;;;;;;10.53;6.50;;;6.10;99.90;;;;;;4996928;28;20045;-81
2022/03/11 00:45:54;;;;;;;11.18;6.55;;;6.00;99.90;;;;;;5005977;28;20103;-81
2022/03/11 00:48:21;;;;;;;10.63;6.53;;;6.00;99.90;;;;;;4991005;28;20097;-80
2022/03/11 00:50:47;;;;;;;;;;;6.10;99.90;;;;;;5015083;28;20077;-80
2022/03/11 00:53:13;;;;;;;11.02;6.47;;;6.00;99.90;;;;;;5002023;28;19956;-80
2022/03/11 00:55:38;;;;;;;9.10;6.10;;;5.90;99.90;;;;;;4996409;28;20045;-80
2022/03/11 00:58:05;;;;;;;10.23;6.50;;;6.10;99.90;;;;;;4987148;28;20348;-80
2022/03/11 01:00:31;;;;;;;10.07;6.28;;;5.90;99.90;;;;;;4998057;28;20280;-80
2022/03/11 01:02:57;;;;;;;10.73;5.78;;;5.90;99.90;;;;;;5008930;28;20515;-80
2022/03/11 01:05:22;;;;;;;9.80;6.07;;;6.00;99.90;;;;;;4994584;28;20056;-79
2022/03/11 01:07:49;;;;;;;10.50;6.50;;;5.80;99.90;;;;;;5015128;28;20377;-80
2022/03/11 01:10:14;;;;;;;12.10;6.50;;;5.80;99.90;;;;;;5013697;28;20045;-80
2022/03/11 01:12:40;;;;;;;12.80;6.43;;;5.80;99.90;;;;;;5010921;28;20116;-79
2022/03/11 01:15:07;;;;;;;10.88;6.60;;;5.70;99.90;;;;;;5013093;28;20033;-80
2022/03/11 01:17:33;;;;;;;12.45;6.00;;;5.80;99.90;;;;;;5015077;28;20039;-80
2022/03/11 01:19:59;;;;;;;10.25;6.40;;;5.70;99.90;;;;;;5013361;28;20034;-81
2022/03/11 01:22:26;;;;;;;11.45;5.82;;;6.30;99.90;;;;;;5012752;28;20041;-81
2022/03/11 01:24:52;;;;;;;12.05;6.63;;;5.70;99.90;;;;;;5024559;28;20037;-81
2022/03/11 01:27:17;;;;;;;9.75;6.57;;;5.60;99.90;;;;;;5002086;28;20041;-80
2022/03/11 01:29:43;;;;;;;12.43;6.90;;;5.60;99.90;;;;;;5010596;28;20556;-79
2022/03/11 01:32:09;;;;;;;13.23;7.00;;;5.80;99.90;;;;;;5012737;28;20322;-80
2022/03/11 01:34:34;;;;;;;12.17;7.10;;;5.50;99.90;;;;;;4996149;28;20099;-80
2022/03/11 01:37:00;;;;;;;14.48;7.00;;;5.50;99.90;;;;;;4996630;28;20065;-80
2022/03/11 01:39:26;;;;;;;12.30;7.70;;;5.40;99.90;;;;;;4973203;28;20409;-80
2022/03/11 01:41:52;;;;;;;13.53;7.90;;;5.70;99.90;;;;;;5015149;28;20400;-81
2022/03/11 01:44:18;;;;;;;13.73;8.23;;;5.40;99.90;;;;;;5012927;28;20049;-81
2022/03/11 01:46:43;;;;;;;13.27;8.05;;;5.30;99.90;;;;;;5003655;28;20032;-81
2022/03/11 01:49:11;;;;;;;12.85;7.90;;;5.40;99.90;;;;;;5012808;28;20167;-81
2022/03/11 01:51:41;;;;;;;12.57;7.55;;;5.30;99.90;;;;;;5012224;28;20046;-81
2022/03/11 01:54:07;;;;;;;12.55;7.72;;;5.50;99.90;;;;;;4984910;28;20505;-81
2022/03/11 01:56:34;;;;;;;13.07;8.27;;;5.50;99.90;;;;;;5011512;28;20053;-81
2022/03/11 01:59:00;;;;;;;13.10;8.07;;;5.20;99.90;;;;;;5014728;28;20060;-81
2022/03/11 02:01:26;;;;;;;13.32;8.50;;;5.10;99.90;;;;;;5012380;28;20417;-81
2022/03/11 02:03:52;;;;;;;13.90;8.43;;;5.20;99.90;;;;;;5012252;28;20060;-80
2022/03/11 02:06:19;;;;;;;15.98;8.80;;;5.10;99.90;;;;;;4996281;28;20488;-80
2022/03/11 02:08:45;;;;;;;13.98;8.93;;;5.10;99.90;;;;;;4980027;28;20049;-80
2022/03/11 02:11:11;;;;;;;16.20;9.10;;;6.20;99.90;;;;;;4980159;28;20037;-81
2022/03/11 02:13:44;;;;;;;14.95;8.77;;;5.00;99.90;;;;;;4995566;28;20038;-80
2022/03/11 02:16:18;;;;;;;16.80;9.35;;;5.10;99.90;;;;;;5012487;28;21729;-80
2022/03/11 02:18:43;;;;;;;14.20;8.65;;;5.10;99.90;;;;;;5012056;28;20038;-80
2022/03/11 02:21:10;;;;;;;17.23;10.25;;;5.00;99.90;;;;;;5012318;28;20025;-80
2022/03/11 02:23:46;;;;;;;17.27;9.27;;;5.40;99.90;;;;;;5014300;28;20121;-80
2022/03/11 02:26:17;;;;;;;17.52;10.02;;;5.00;99.90;;;;;;4999400;28;20045;-80
2022/03/11 02:28:44;;;;;;;18.13;9.68;;;5.00;99.90;;;;;;4999995;28;20037;-80
2022/03/11 02:31:10;;;;;;;15.45;10.00;;;5.00;99.90;;;;;;5015786;28;20044;-80
2022/03/11 02:33:36;;;;;;;18.88;10.48;;;5.00;99.90;;;;;;5015161;28;20088;-80
2022/03/11 02:36:02;;;;;;;17.58;10.65;;;5.00;99.90;;;;;;4999298;28;20069;-80
2022/03/11 02:38:28;;;;;;;15.60;9.73;;;5.00;99.90;;;;;;4997263;28;20045;-80
2022/03/11 02:40:55;;;;;;;18.77;11.50;;;5.00;99.90;;;;;;4983106;28;20107;-81
2022/03/11 02:43:21;;;;;;;19.25;11.10;;;5.00;99.90;;;;;;5015124;28;20284;-81
2022/03/11 02:45:46;;;;;;;17.90;10.88;;;5.50;99.90;;;;;;4975548;28;20037;-80
2022/03/11 02:48:12;;;;;;;21.40;11.75;;;5.00;99.90;;;;;;4996958;28;20033;-80
2022/03/11 02:50:38;;;;;;;20.10;12.17;;;5.20;99.90;;;;;;5015105;28;20056;-80
2022/03/11 02:53:03;;;;;;;19.03;12.23;;;4.90;99.90;;;;;;4998984;28;20091;-80
2022/03/11 02:55:29;;;;;;;20.40;12.13;;;4.90;99.90;;;;;;4998580;28;20894;-80
2022/03/11 02:57:55;;;;;;;20.75;12.10;;;5.00;99.90;;;;;;4994104;28;20488;-80
2022/03/11 03:00:21;;;;;;;24.30;12.37;;;4.80;99.90;;;;;;4982618;28;20029;-80
2022/03/11 03:02:47;;;;;;;24.80;13.05;;;4.80;99.90;;;;;;4998543;28;20362;-81
2022/03/11 03:05:13;;;;;;;23.37;13.27;;;4.70;99.90;;;;;;4982561;28;20092;-80
2022/03/11 03:07:40;;;;;;;22.65;13.00;;;4.70;99.90;;;;;;4991470;28;20175;-81
2022/03/11 03:10:06;;;;;;;;;;;4.70;99.90;;;;;;5006098;28;20045;-80
2022/03/11 03:12:32;;;;;;;23.67;12.93;;;4.70;99.90;;;;;;5007473;28;19921;-80
2022/03/11 03:14:58;;;;;;;21.50;13.05;;;4.90;99.90;;;;;;5009877;28;20378;-80
2022/03/11 03:17:23;;;;;;;25.83;13.43;;;5.70;99.90;;;;;;4989688;28;20030;-80
2022/03/11 03:19:49;;;;;;;24.42;13.98;;;4.60;99.90;;;;;;4988967;28;20032;-80
2022/03/11 03:22:16;;;;;;;22.15;13.88;;;6.00;99.90;;;;;;4982573;28;20037;-80
2022/03/11 03:24:42;;;;;;;26.75;13.95;;;4.60;99.90;;;;;;5007220;28;20033;-80
2022/03/11 03:27:09;;;;;;;22.17;13.68;;;4.70;99.90;;;;;;4998398;28;20040;-79
2022/03/11 03:29:35;;;;;;;26.08;14.85;;;4.50;99.90;;;;;;5009821;28;20470;-80
2022/03/11 03:32:01;;;;;;;22.50;13.40;;;4.50;99.90;;;;;;4998592;28;20095;-81
2022/03/11 03:34:37;;;;;;;24.77;14.25;;;4.40;99.90;;;;;;4988418;28;20485;-81
2022/03/11 03:37:11;;;;;;;24.73;13.30;;;4.40;99.90;;;;;;4993510;28;20065;-80
2022/03/11 03:39:38;;;;;;;25.95;14.32;;;5.10;99.90;;;;;;5004640;28;20034;-81
2022/03/11 03:42:05;;;;;;;23.27;13.20;;;4.50;99.90;;;;;;4982014;28;20037;-80
2022/03/11 03:44:31;;;;;;;24.00;14.32;;;4.50;99.90;;;;;;5009829;28;20450;-80
2022/03/11 03:46:57;;;;;;;24.98;14.13;;;4.40;99.90;;;;;;5009269;28;20045;-81
2022/03/11 03:49:23;;;;;;;25.20;15.15;;;4.40;99.90;;;;;;5007114;28;20033;-81
2022/03/11 03:51:49;;;;;;;25.48;14.98;;;4.30;99.90;;;;;;5002037;28;20046;-80
2022/03/11 03:54:17;;;;;;;26.02;14.43;;;4.30;99.90;;;;;;4974397;28;20131;-80
2022/03/11 03:56:44;;;;;;;24.38;13.88;;;4.30;99.90;;;;;;4976861;28;20030;-80
2022/03/11 03:59:11;;;;;;;22.27;13.93;;;4.60;99.90;;;;;;5004666;28;20413;-80
2022/03/11 04:01:41;;;;;;;23.90;14.93;;;4.40;99.90;;;;;;4992717;28;20056;-80
2022/03/11 04:04:08;;;;;;;23.02;14.70;;;4.30;99.90;;;;;;4958580;28;20041;-80
2022/03/11 04:06:35;;;;;;;24.08;15.15;;;4.60;99.90;;;;;;4997633;28;20040;-79
2022/03/11 04:09:04;;;;;;;25.92;15.10;;;4.30;99.90;;;;;;4997556;28;20045;-80
2022/03/11 04:11:30;;;;;;;24.45;15.00;;;4.30;99.90;;;;;;4986163;28;20080;-80
2022/03/11 04:13:57;;;;;;;28.80;15.73;;;4.20;99.90;;;;;;5008718;28;20065;-80
2022/03/11 04:16:23;;;;;;;25.48;14.98;;;4.20;99.90;;;;;;5009007;28;20038;-80
2022/03/11 04:18:49;;;;;;;27.95;15.63;;;4.20;99.90;;;;;;5006539;28;20112;-80
2022/03/11 04:21:17;;;;;;;25.05;15.77;;;4.10;99.90;;;;;;5009003;28;20042;-80
2022/03/11 04:23:44;;;;;;;27.73;15.98;;;4.10;99.90;;;;;;4989741;28;20040;-80
2022/03/11 04:26:10;;;;;;;26.80;15.15;;;4.00;99.90;;;;;;4992742;28;20045;-80
2022/03/11 04:28:37;;;;;;;25.90;15.27;;;4.10;99.90;;;;;;4987376;28;20041;-81
2022/03/11 04:31:11;;;;;;;25.90;15.88;;;4.30;99.90;;;;;;4997194;28;20456;-80
2022/03/11 04:33:38;;;;;;;24.85;16.10;;;4.50;99.90;;;;;;4973359;28;20076;-80
2022/03/11 04:36:05;;;;;;;26.10;15.93;;;4.20;99.90;;;;;;5003040;28;20517;-79
2022/03/11 04:38:31;;;;;;;25.75;15.32;;;3.90;99.90;;;;;;5003197;28;20481;-80
2022/03/11 04:40:57;;;;;;;;;;;3.90;99.90;;;;;;4998206;28;20121;-80
2022/03/11 04:43:23;;;;;;;25.90;15.65;;;3.80;99.90;;;;;;5004682;28;19956;-81
2022/03/11 04:45:49;;;;;;;24.27;14.75;;;5.00;99.90;;;;;;4995476;28;20120;-80
2022/03/11 04:48:15;;;;;;;28.27;15.45;;;3.80;99.90;;;;;;5005273;28;20132;-78
2022/03/11 04:50:41;;;;;;;26.98;15.88;;;3.80;99.90;;;;;;5002295;28;20203;-80
2022/03/11 04:53:07;;;;;;;26.63;15.88;;;4.10;99.90;;;;;;4984642;28;20121;-80
2022/03/11 04:55:33;;;;;;;28.15;16.30;;;3.70;99.90;;;;;;4994358;28;20056;-79
2022/03/11 04:57:59;;;;;;;26.15;14.40;;;3.70;99.90;;;;;;5007791;28;20044;-80
2022/03/11 05:00:25;;;;;;;26.50;15.90;;;3.70;99.90;;;;;;4987138;28;20049;-81
2022/03/11 05:02:52;;;;;;;24.75;15.63;;;4.10;99.90;;;;;;5005813;28;20068;-81
2022/03/11 05:05:18;;;;;;;25.95;15.88;;;3.70;99.90;;;;;;4970038;28;20047;-81
2022/03/11 05:07:44;;;;;;;27.13;15.55;;;4.00;99.90;;;;;;4992590;28;20072;-81
2022/03/11 05:10:11;;;;;;;27.63;15.30;;;3.60;99.90;;;;;;5003696;28;20119;-80
2022/03/11 05:12:40;;;;;;;25.15;15.90;;;3.60;99.90;;;;;;4994562;28;20373;-82
2022/03/11 05:15:07;;;;;;;24.65;14.45;;;4.40;99.90;;;;;;4994551;28;20498;-82
2022/03/11 05:17:34;;;;;;;25.00;15.10;;;3.60;99.90;;;;;;5001091;28;20613;-81
2022/03/11 05:19:59;;;;;;;27.85;16.65;;;3.90;99.90;;;;;;4983801;28;20063;-81
2022/03/11 05:22:25;;;;;;;30.13;16.87;;;3.90;99.90;;;;;;4989777;28;20489;-82
2022/03/11 05:24:51;;;;;;;25.30;15.27;;;3.50;99.90;;;;;;5010052;28;20091;-81
2022/03/11 05:27:17;;;;;;;24.88;14.82;;;3.50;99.90;;;;;;4995136;28;20089;-80
2022/03/11 05:29:43;;;;;;;30.58;17.35;;;3.50;99.90;;;;;;5004788;28;20116;-81
2022/03/11 05:32:10;;;;;;;24.47;15.47;;;3.40;99.90;;;;;;4986375;28;20044;-80
2022/03/11 05:34:39;;;;;;;25.77;14.77;;;3.40;99.90;;;;;;4988017;28;20046;-78
2022/03/11 05:37:06;;;;;;;24.90;14.82;;;4.20;99.90;;;;;;5002855;28;20129;-79
2022/03/11 05:39:32;;;;;;;;;;;3.60;99.90;;;;;;4984979;28;20069;-79
2022/03/11 05:41:58;;;;;;;25.40;15.35;;;3.40;99.90;;;;;;5005404;28;20384;-81
2022/03/11 05:44:23;;;;;;;26.17;15.18;;;3.40;99.90;;;;;;5004128;28;20093;-79
2022/03/11 05:46:50;;;;;;;25.17;15.82;;;4.30;99.90;;;;;;4991471;28;20041;-79
2022/03/11 05:49:16;;;;;;;26.85;16.50;;;4.60;99.90;;;;;;5002747;28;20119;-79
2022/03/11 05:51:41;;;;;;;28.17;16.58;;;4.50;99.90;;;;;;5005268;28;20054;-79
2022/03/11 05:54:07;;;;;;;25.00;15.93;;;3.30;99.90;;;;;;4999819;28;20117;-80
2022/03/11 05:56:34;;;;;;;26.30;15.47;;;3.30;99.90;;;;;;4976996;28;20042;-81
2022/03/11 05:59:00;;;;;;;26.90;16.08;;;3.80;99.90;;;;;;5013100;28;20819;-81
2022/03/11 06:01:26;;;;;;;26.98;15.80;;;3.30;99.90;;;;;;4997829;28;20073;-80
2022/03/11 06:03:52;;;;;;;28.05;16.02;;;3.20;99.90;;;;;;4993165;28;20084;-80
2022/03/11 06:06:18;;;;;;;25.98;16.27;;;3.60;99.90;;;;;;5016493;28;20045;-80
2022/03/11 06:08:44;;;;;;;27.02;15.40;;;3.20;99.90;;;;;;4969858;28;20037;-81
2022/03/11 06:11:10;;;;;;;27.30;16.70;;;4.20;99.90;;;;;;5016447;28;20427;-80
2022/03/11 06:13:36;;;;;;;29.48;16.58;;;3.20;99.90;;;;;;4999802;28;20048;-81
2022/03/11 06:16:03;;;;;;;25.77;16.30;;;3.20;99.90;;;;;;4999615;28;20033;-81
2022/03/11 06:18:30;;;;;;;25.63;14.35;;;3.10;99.90;;;;;;5000148;28;20033;-80
2022/03/11 06:20:58;;;;;;;30.33;16.50;;;3.20;99.90;;;;;;4999522;28;20041;-81
2022/03/11 06:23:24;;;;;;;26.95;16.63;;;3.20;99.90;;;;;;5016290;28;20420;-81
2022/03/11 06:25:51;;;;;;;28.02;16.70;;;3.20;99.90;;;;;;5016038;28;20045;-81
2022/03/11 06:28:17;;;;;;;27.77;15.60;;;3.20;99.90;;;;;;4999832;28;20037;-81
2022/03/11 06:30:45;;;;;;;24.55;15.32;;;3.20;99.90;;;;;;5016074;28;20095;-81
2022/03/11 06:33:11;;;;;;;25.70;15.63;;;3.20;99.90;;;;;;5015604;28;20052;-80
2022/03/11 06:35:38;;;;;;;26.20;15.77;;;3.20;99.90;;;;;;5016312;28;20033;-79
2022/03/11 06:38:04;;;;;;;28.75;16.13;;;3.20;99.90;;;;;;5015283;28;20029;-80
2022/03/11 06:40:30;;;;;;;25.67;15.45;;;3.30;99.90;;;;;;5016051;28;20557;-80
2022/03/11 06:42:56;;;;;;;24.60;15.25;;;3.30;99.90;;;;;;4997042;28;20077;-80
2022/03/11 06:45:22;;;;;;;24.75;14.93;;;3.30;99.90;;;;;;5015757;28;20122;-81
2022/03/11 06:47:48;;;;;;;27.33;15.68;;;4.40;99.90;;;;;;5015202;28;20116;-80
2022/03/11 06:50:16;;;;;;;25.20;16.05;;;3.90;99.90;;;;;;4999268;28;20041;-80
2022/03/11 06:52:42;;;;;;;26.17;15.38;;;3.50;99.90;;;;;;5011235;28;20470;-80
2022/03/11 06:55:09;;;;;;;26.77;15.60;;;3.60;99.90;;;;;;5015377;28;20489;-80
2022/03/11 06:57:35;;;;;;;25.80;15.10;;;3.70;99.90;;;;;;4999286;28;20556;-80
2022/03/11 07:00:01;;;;;;;26.40;15.48;;;3.70;99.90;;;;;;4985780;28;20054;-80
2022/03/11 07:02:27;;;;;;;23.05;13.38;;;3.80;99.90;;;;;;4995513;28;20520;-80
2022/03/11 07:04:53;;;;;;;27.27;15.38;;;3.80;99.90;;;;;;5002658;28;20081;-80
2022/03/11 07:07:18;;;;;;;26.80;14.23;;;3.90;99.90;;;;;;4967366;28;20041;-80
2022/03/11 07:09:44;;;;;;;28.88;15.73;;;5.20;99.90;;;;;;4984050;28;20027;-80
2022/03/11 07:12:10;;;;;;;21.73;13.13;;;4.10;99.90;;;;;;4988718;28;20164;-80
2022/03/11 07:14:36;;;;;;;24.97;14.17;;;4.20;99.90;;;;;;4965731;28;21625;-80
2022/03/11 07:17:03;;;;;;;;;;;4.50;99.90;;;;;;5004974;28;20429;-76
2022/03/11 07:19:28;;;;;;;26.45;14.60;;;4.40;99.90;;;;;;5006338;28;20000;-76
2022/03/11 07:21:58;;;;;;;26.13;15.68;;;4.50;99.90;;;;;;4996544;28;20117;-76
2022/03/11 07:24:25;;;;;;;27.90;15.30;;;4.60;99.90;;;;;;5000817;28;20053;-76
2022/03/11 07:26:51;;;;;;;24.65;14.63;;;4.50;99.90;;;;;;5010828;28;20049;-76
2022/03/11 07:29:17;;;;;;;25.52;14.50;;;4.70;99.90;;;;;;4996706;28;20042;-76
2022/03/11 07:31:43;;;;;;;23.92;13.57;;;4.70;99.90;;;;;;4992584;28;20092;-77
2022/03/11 07:34:09;;;;;;;25.27;15.02;;;4.80;99.90;;;;;;4984710;28;20541;-76
2022/03/11 07:36:34;;;;;;;25.73;14.43;;;4.90;99.90;;;;;;5005651;28;20041;-76
2022/03/11 07:39:04;;;;;;;22.95;13.68;;;5.00;99.90;;;;;;5005956;28;20041;-76
2022/03/11 07:41:31;;;;;;;24.02;13.93;;;5.30;99.90;;;;;;4999026;28;20496;-77
2022/03/11 07:43:57;;;;;;;;;;;5.30;99.90;;;;;;4995876;28;20116;-77
2022/03/11 07:46:23;;;;;;;22.27;14.13;;;5.40;99.90;;;;;;4994813;28;20319;-76
2022/03/11 07:48:52;;;;;;;24.23;13.90;;;5.50;99.90;;;;;;5007743;28;20037;-75
2022/03/11 07:51:18;;;;;;;22.48;14.07;;;5.70;99.90;;;;;;4975190;28;20046;-76
2022/03/11 07:53:45;;;;;;;22.85;13.57;;;6.00;99.90;;;;;;5001245;28;20120;-75
2022/03/11 07:56:12;;;;;;;;;;;6.60;99.90;;;;;;5004217;28;20042;-75
2022/03/11 07:58:39;;;;;;;24.13;12.73;;;7.20;99.90;;;;;;5003531;28;20292;-76
2022/03/11 08:01:09;;;;;;;21.98;12.30;;;7.90;99.90;;;;;;5012788;28;20041;-76
2022/03/11 08:03:37;;;;;;;22.70;12.98;;;8.30;99.90;;;;;;5005785;28;20042;-76
2022/03/11 08:06:04;;;;;;;22.73;12.48;;;8.80;99.90;;;;;;4989363;28;20401;-76
2022/03/11 08:08:29;;;;;;;22.20;12.68;;;8.90;99.90;;;;;;5013351;28;20052;-76
2022/03/11 08:10:55;;;;;;;22.23;13.27;;;8.90;99.90;;;;;;4994746;28;20038;-76
2022/03/11 08:13:22;;;;;;;22.35;13.02;;;8.90;99.90;;;;;;4999898;28;20103;-76
2022/03/11 08:15:48;;;;;;;20.17;12.27;;;9.10;99.90;;;;;;5011215;28;20045;-76
2022/03/11 08:18:14;;;;;;;20.98;12.50;;;9.60;99.90;;;;;;4995182;28;20059;-76
2022/03/11 08:20:40;;;;;;;22.77;12.80;;;9.70;99.90;;;;;;4995881;28;20095;-76
2022/03/11 08:23:06;;;;;;;21.40;13.25;;;9.80;99.90;;;;;;4971178;28;20041;-75
2022/03/11 08:25:32;;;;;;;20.80;13.13;;;10.00;99.90;;;;;;4988035;28;20448;-75
2022/03/11 08:27:58;;;;;;;20.88;13.18;;;10.00;99.90;;;;;;5010547;28;20133;-75
2022/03/11 08:30:25;;;;;;;20.98;12.25;;;10.30;99.60;;;;;;5011341;28;20076;-74
2022/03/11 08:32:52;;;;;;;20.80;13.25;;;10.00;99.90;;;;;;5004475;28;20046;-74
2022/03/11 08:35:19;;;;;;;19.63;12.63;;;10.60;99.60;;;;;;5010098;28;20045;-74
2022/03/11 08:37:46;;;;;;;22.02;12.93;;;10.90;98.20;;;;;;5014392;28;20124;-74
2022/03/11 08:40:12;;;;;;;;;;;10.90;97.60;;;;;;5013719;28;20056;-74
2022/03/11 08:42:39;;;;;;;20.02;12.68;;;11.10;96.80;;;;;;5013596;28;19924;-74
2022/03/11 08:45:06;;;;;;;20.92;12.45;;;11.40;95.10;;;;;;5011163;28;20120;-74
2022/03/11 08:47:31;;;;;;;23.02;13.57;;;11.50;94.60;;;;;;5012444;28;20120;-74
2022/03/11 08:49:58;;;;;;;20.65;13.38;;;11.50;94.30;;;;;;5010609;28;20128;-74
2022/03/11 08:52:28;;;;;;;27.25;13.32;;;12.20;94.00;;;;;;4995414;28;20053;-75
2022/03/11 08:54:54;;;;;;;16.60;11.30;;;12.50;92.30;;;;;;5010126;28;20145;-75
2022/03/11 08:57:20;;;;;;;18.77;12.45;;;12.90;90.90;;;;;;5010372;28;20111;-75
2022/03/11 08:59:46;;;;;;;18.92;11.70;;;13.10;89.50;;;;;;4997062;28;20046;-75
2022/03/11 09:02:14;;;;;;;20.75;13.18;;;12.70;87.00;;;;;;5008912;28;20508;-75
2022/03/11 09:04:41;;;;;;;20.95;12.48;;;12.50;86.70;;;;;;5013405;28;20056;-74
2022/03/11 09:07:07;;;;;;;19.20;12.30;;;12.60;86.30;;;;;;5010955;28;20049;-74
2022/03/11 09:09:33;;;;;;;22.98;12.05;;;12.90;85.70;;;;;;4977607;28;20049;-74
2022/03/11 09:12:00;;;;;;;19.08;12.68;;;12.90;85.00;;;;;;4997195;28;20045;-74
2022/03/11 09:14:25;;;;;;;19.58;12.80;;;12.50;84.40;;;;;;5006009;28;20050;-74
2022/03/11 09:16:51;;;;;;;20.30;12.68;;;12.90;83.60;;;;;;5001106;28;20056;-75
2022/03/11 09:19:17;;;;;;;16.98;12.15;;;12.80;83.70;;;;;;5014524;28;20779;-75
2022/03/11 09:21:43;;;;;;;18.35;12.00;;;12.70;82.90;;;;;;5012282;28;20232;-74
2022/03/11 09:24:09;;;;;;;17.83;11.18;;;12.80;83.40;;;;;;5028888;28;20053;-76
2022/03/11 09:26:34;;;;;;;21.13;12.95;;;13.20;82.50;;;;;;5013204;28;20553;-74
2022/03/11 09:29:00;;;;;;;20.70;12.82;;;12.90;84.70;;;;;;5013494;28;20473;-74
2022/03/11 09:31:26;;;;;;;18.35;11.50;;;13.40;82.60;;;;;;5013501;28;20053;-74
2022/03/11 09:33:52;;;;;;;18.55;11.65;;;13.50;80.60;;;;;;5018777;28;20042;-74
2022/03/11 09:36:18;;;;;;;18.83;11.93;;;13.30;81.50;;;;;;5032387;28;20048;-74
2022/03/11 09:38:44;;;;;;;;;;;13.10;80.90;;;;;;4990823;28;20352;-74
2022/03/11 09:41:10;;;;;;;18.02;12.15;;;13.70;79.60;;;;;;5017257;28;19917;-74
2022/03/11 09:43:38;;;;;;;17.67;12.10;;;13.80;79.80;;;;;;5016969;28;20124;-74
2022/03/11 09:46:05;;;;;;;19.40;11.45;;;13.80;78.40;;;;;;5008763;28;20046;-74
2022/03/11 09:48:34;;;;;;;18.67;12.20;;;14.00;77.40;;;;;;5017054;28;20545;-74
2022/03/11 09:51:00;;;;;;;19.77;12.63;;;14.20;76.20;;;;;;5017130;28;20112;-74
2022/03/11 09:53:29;;;;;;;19.92;11.80;;;14.10;76.00;;;;;;5009366;28;20429;-74
2022/03/11 09:55:55;;;;;;;19.42;12.10;;;14.20;75.60;;;;;;5013773;28;20033;-74
2022/03/11 09:58:21;;;;;;;19.63;11.85;;;14.50;75.40;;;;;;5016044;28;20064;-74
2022/03/11 10:00:48;;;;;;;19.98;11.82;;;14.70;73.50;;;;;;4997487;28;20053;-74
2022/03/11 10:03:14;;;;;;;19.77;11.57;;;14.30;73.60;;;;;;4999138;28;20050;-74
2022/03/11 10:05:53;;;;;;;18.50;12.65;;;14.60;73.10;;;;;;5033625;28;20049;-74
2022/03/11 10:08:37;;;;;;;18.77;11.75;;;14.90;73.30;;;;;;4995086;28;20501;-74
2022/03/11 10:11:26;;;;;;;18.73;11.50;;;15.10;71.80;;;;;;5017184;28;20120;-74
2022/03/11 10:13:53;;;;;;;19.00;12.00;;;14.90;71.30;;;;;;5015698;28;20049;-75
2022/03/11 10:16:25;;;;;;;18.20;12.90;;;15.00;71.40;;;;;;5016447;28;20382;-75
2022/03/11 10:18:58;;;;;;;18.70;12.18;;;14.90;71.50;;;;;;5013365;28;20048;-74
2022/03/11 10:21:28;;;;;;;18.42;12.35;;;14.90;71.30;;;;;;5029238;28;20074;-74
2022/03/11 10:23:54;;;;;;;19.50;12.35;;;15.50;70.50;;;;;;5005164;28;20044;-74
2022/03/11 10:26:31;;;;;;;17.75;12.13;;;15.20;70.30;;;;;;5016046;28;20046;-75
2022/03/11 10:29:01;;;;;;;20.63;12.37;;;15.50;69.60;;;;;;5014096;28;20040;-74
2022/03/11 10:31:31;;;;;;;19.42;12.90;;;15.50;69.40;;;;;;5002598;28;20339;-74
2022/03/11 10:34:18;;;;;;;17.55;12.13;;;14.90;71.00;;;;;;5009468;28;20052;-75
2022/03/11 10:36:48;;;;;;;19.25;13.27;;;15.40;70.20;;;;;;5009709;28;20842;-74
2022/03/11 10:39:15;;;;;;;18.38;11.77;;;15.70;69.20;;;;;;5026498;28;20039;-74
2022/03/11 10:41:41;;;;;;;19.48;12.57;;;16.00;69.20;;;;;;5011388;28;20109;-75
2022/03/11 10:44:09;;;;;;;19.55;12.82;;;16.50;68.70;;;;;;5015762;28;20041;-76
2022/03/11 10:46:35;;;;;;;20.00;12.98;;;17.10;68.30;;;;;;5009049;28;20045;-74
2022/03/11 10:49:01;;;;;;;;;;;16.90;67.50;;;;;;5009990;28;20073;-75
2022/03/11 10:51:29;;;;;;;20.85;12.60;;;16.50;66.70;;;;;;5024121;28;20369;-76
2022/03/11 10:53:55;;;;;;;19.75;12.38;;;16.60;68.00;;;;;;4999105;28;20052;-74
2022/03/11 10:56:43;;;;;;;19.77;12.43;;;16.60;66.80;;;;;;5014541;28;20361;-74
2022/03/11 10:59:13;;;;;;;18.80;12.60;;;17.30;67.00;;;;;;4995947;28;20042;-75
2022/03/11 11:01:40;;;;;;;18.30;12.55;;;17.20;65.60;;;;;;5010624;28;20500;-76
2022/03/11 11:04:11;;;;;;;15.13;10.20;;;17.10;65.00;;;;;;5014410;28;20536;-75
2022/03/11 11:06:37;;;;;;;22.13;12.75;;;16.70;65.00;;;;;;5007529;28;20458;-75
2022/03/11 11:09:04;;;;;;;18.13;12.27;;;17.00;65.60;;;;;;5012308;28;20486;-76
2022/03/11 11:11:31;;;;;;;17.88;12.73;;;16.80;65.00;;;;;;5009936;28;20289;-76
2022/03/11 11:13:59;;;;;;;17.70;12.05;;;16.50;65.10;;;;;;5009960;28;20041;-76
2022/03/11 11:16:30;;;;;;;18.45;13.18;;;16.90;64.60;;;;;;4991818;28;20133;-75
2022/03/11 11:18:59;;;;;;;18.92;12.65;;;16.70;65.30;;;;;;5006866;28;20046;-75
2022/03/11 11:21:26;;;;;;;17.63;11.50;;;16.80;65.00;;;;;;5011519;28;20574;-75
2022/03/11 11:23:57;;;;;;;18.42;12.65;;;16.50;64.90;;;;;;5010535;28;20043;-75
2022/03/11 11:26:25;;;;;;;20.00;12.18;;;17.10;63.90;;;;;;4995455;28;20057;-75
2022/03/11 11:29:00;;;;;;;16.85;11.35;;;17.40;64.00;;;;;;5010549;28;20152;-75
2022/03/11 11:31:27;;;;;;;19.27;11.52;;;17.30;62.90;;;;;;5013674;28;20037;-76
2022/03/11 11:33:53;;;;;;;19.25;11.07;;;17.70;62.80;;;;;;5005501;28;20057;-75
2022/03/11 11:36:39;;;;;;;20.02;12.50;;;18.00;62.50;;;;;;5017660;28;20045;-76
2022/03/11 11:39:11;;;;;;;16.47;11.57;;;18.20;61.90;;;;;;5006282;28;20125;-75
2022/03/11 11:41:37;;;;;;;17.48;12.75;;;17.90;62.00;;;;;;5010502;28;20134;-75
2022/03/11 11:44:05;;;;;;;18.17;12.43;;;17.80;62.10;;;;;;4994298;28;20120;-75
2022/03/11 11:46:33;;;;;;;17.65;11.77;;;17.40;62.70;;;;;;5013971;28;20116;-76
2022/03/11 11:49:06;;;;;;;17.38;11.80;;;16.60;63.50;;;;;;5024256;28;20064;-76
2022/03/11 11:51:32;;;;;;;16.35;11.77;;;17.10;63.00;;;;;;5011639;28;20042;-75
2022/03/11 11:54:11;;;;;;;18.10;11.98;;;17.20;63.30;;;;;;4998210;28;20504;-76
2022/03/11 11:56:45;;;;;;;16.60;11.30;;;17.20;62.60;;;;;;5008573;28;20457;-76
2022/03/11 11:59:17;;;;;;;16.27;10.75;;;17.60;62.30;;;;;;5011702;28;20481;-76
2022/03/11 12:01:55;;;;;;;16.98;11.48;;;17.60;62.60;;;;;;5004995;28;20501;-76
2022/03/11 12:04:38;;;;;;;19.88;12.13;;;17.90;61.70;;;;;;5010385;28;20080;-76
2022/03/11 12:07:13;;;;;;;16.30;12.00;;;17.60;62.30;;;;;;5014501;28;20563;-77
2022/03/11 12:09:42;;;;;;;18.38;12.57;;;18.00;61.60;;;;;;4985762;28;20386;-75
2022/03/11 12:12:30;;;;;;;15.30;10.82;;;17.60;62.20;;;;;;5004360;28;20060;-76
2022/03/11 12:15:05;;;;;;;17.40;11.60;;;17.20;61.70;;;;;;5006608;28;20107;-76
2022/03/11 12:17:51;;;;;;;16.52;11.68;;;17.60;62.40;;;;;;5009061;28;20041;-76
2022/03/11 12:20:31;;;;;;;18.10;11.00;;;18.00;62.30;;;;;;5002904;28;20052;-76
2022/03/11 12:23:16;;;;;;;17.63;11.10;;;19.00;60.70;;;;;;5015324;28;20396;-76
2022/03/11 12:25:58;;;;;;;18.58;11.60;;;19.00;59.70;;;;;;5009377;28;20121;-76
2022/03/11 12:28:33;;;;;;;14.65;10.75;;;18.30;60.20;;;;;;5012983;28;20045;-75
2022/03/11 12:31:12;;;;;;;14.50;10.32;;;18.20;59.70;;;;;;5010275;28;20426;-75
2022/03/11 12:33:41;;;;;;;16.10;11.02;;;18.20;60.20;;;;;;5009714;28;20096;-75
2022/03/11 12:36:15;;;;;;;16.67;11.00;;;18.30;60.00;;;;;;5009785;28;20546;-74
2022/03/11 12:38:41;;;;;;;15.77;10.95;;;18.70;59.10;;;;;;5010691;28;20116;-74
2022/03/11 12:41:11;;;;;;;15.00;10.35;;;19.30;59.10;;;;;;5008579;28;20041;-75